Time;durP1;ratioP1;P1;durP2;ratioP2;P2;SDS_P1;SDS_P2;PMS_P1;PMS_P2;Temp;Humidity;BMP_temperature;BMP_pressure;BME280_temperature;BME280_humidity;BME280_pressure;Samples;Min_cycle;Max_cycle;Signal;HPM_P1;HPM_P2
2022/04/23 00:05:46;;;;;;;26.03;22.77;;;10.70;99.90;;;;;;2614550;54;20418;-80
2022/04/23 00:15:37;;;;;;;26.00;23.17;;;10.60;99.90;;;;;;2611158;54;20443;-80
2022/04/23 00:21:44;;;;;;;25.73;21.97;;;10.60;99.90;;;;;;2615740;54;20427;-77
2022/04/23 00:27:51;;;;;;;22.73;20.40;;;10.60;99.90;;;;;;2612434;54;20399;-80
2022/04/23 00:33:58;;;;;;;29.73;21.33;;;10.60;99.90;;;;;;2612024;54;20268;-78
2022/04/23 00:40:07;;;;;;;25.53;21.70;;;10.60;99.90;;;;;;2614111;39;20590;-79
2022/04/23 00:46:14;;;;;;;26.07;23.27;;;10.60;99.90;;;;;;2610518;54;20393;-80
2022/04/23 00:52:20;;;;;;;25.23;22.60;;;10.60;99.90;;;;;;2611341;54;20186;-79
2022/04/23 00:58:28;;;;;;;27.97;22.70;;;10.60;99.90;;;;;;2612574;54;20157;-78
2022/04/23 01:04:35;;;;;;;28.63;23.00;;;10.50;99.90;;;;;;2610458;54;20414;-79
2022/04/23 01:10:46;;;;;;;28.50;25.50;;;10.50;99.90;;;;;;2610893;54;20422;-76
2022/04/23 01:16:52;;;;;;;31.43;25.47;;;10.60;99.90;;;;;;2613774;54;20394;-79
2022/04/23 01:23:00;;;;;;;34.10;27.80;;;10.60;99.90;;;;;;2611744;54;20150;-76
2022/04/23 01:29:07;;;;;;;34.67;29.60;;;10.70;99.90;;;;;;2613181;54;20406;-81
2022/04/23 01:35:13;;;;;;;36.20;28.67;;;10.70;99.90;;;;;;2609870;54;20183;-79
2022/04/23 01:41:20;;;;;;;34.70;30.60;;;10.70;99.90;;;;;;2609590;54;20176;-79
2022/04/23 01:47:27;;;;;;;39.90;31.87;;;10.60;99.90;;;;;;2612769;54;20159;-80
2022/04/23 01:53:34;;;;;;;36.80;30.60;;;10.60;99.90;;;;;;2611310;54;20190;-79
2022/04/23 01:59:41;;;;;;;38.63;32.20;;;10.60;99.90;;;;;;2612494;54;20170;-79
2022/04/23 02:05:48;;;;;;;37.77;31.87;;;10.60;99.90;;;;;;2612822;54;20146;-77
2022/04/23 02:15:17;;;;;;;40.20;31.67;;;10.50;99.90;;;;;;2610319;47;20487;-81
2022/04/23 02:21:06;;;;;;;34.97;29.47;;;10.50;99.90;;;;;;2611200;47;20154;-77
2022/04/23 02:26:54;;;;;;;35.40;30.37;;;10.50;99.90;;;;;;2614753;54;20411;-78
2022/04/23 02:32:42;;;;;;;37.70;31.70;;;10.40;99.90;;;;;;2610951;54;20159;-78
2022/04/23 02:38:30;;;;;;;39.60;31.93;;;10.40;99.90;;;;;;2610960;54;20383;-77
2022/04/23 02:44:19;;;;;;;35.63;29.00;;;10.40;99.90;;;;;;2613628;46;20174;-77
2022/04/23 02:50:07;;;;;;;34.87;29.77;;;10.40;99.90;;;;;;2611497;39;22336;-81
2022/04/23 02:55:56;;;;;;;40.70;31.70;;;10.30;99.90;;;;;;2609611;47;20417;-79
2022/04/23 03:01:44;;;;;;;35.40;30.77;;;10.40;99.90;;;;;;2615787;39;20807;-79
2022/04/23 03:07:34;;;;;;;37.47;31.07;;;10.30;99.90;;;;;;2609767;54;20157;-79
2022/04/23 03:13:47;;;;;;;35.10;31.17;;;10.20;99.90;;;;;;2615833;54;20411;-78
2022/04/23 03:19:35;;;;;;;38.50;30.47;;;10.20;99.90;;;;;;2619612;47;20161;-77
2022/04/23 03:25:23;;;;;;;38.10;31.60;;;10.20;99.90;;;;;;2614467;47;20214;-76
2022/04/23 03:31:11;;;;;;;39.33;30.70;;;10.20;99.90;;;;;;2612177;54;20154;-78
2022/04/23 03:55:15;;;;;;;35.60;31.00;;;10.20;99.90;;;;;;2612068;54;20981;-79
2022/04/23 04:01:22;;;;;;;38.27;32.00;;;10.20;99.90;;;;;;2610171;39;20732;-77
2022/04/23 04:25:50;;;;;;;39.53;31.27;;;10.50;99.90;;;;;;2607768;54;20456;-78
2022/04/23 04:31:56;;;;;;;38.80;31.10;;;10.50;99.90;;;;;;2611367;54;20757;-79
2022/04/23 04:38:02;;;;;;;36.57;31.47;;;10.60;99.90;;;;;;2608980;54;20189;-77
2022/04/23 04:44:09;;;;;;;41.70;31.50;;;10.60;99.90;;;;;;2608246;54;20185;-77
2022/04/23 04:50:15;;;;;;;36.83;25.20;;;10.60;99.90;;;;;;2611519;54;21114;-78
2022/04/23 04:56:22;;;;;;;39.70;30.47;;;10.80;99.90;;;;;;2608946;54;20193;-77
2022/04/23 05:02:30;;;;;;;38.27;30.43;;;10.90;99.90;;;;;;2609577;54;20390;-77
2022/04/23 05:08:37;;;;;;;34.87;30.30;;;11.10;99.90;;;;;;2614516;54;20411;-79
2022/04/23 05:25:48;;;;;;;34.90;30.37;;;11.60;99.90;;;;;;2613006;46;20445;-77
2022/04/23 05:31:55;;;;;;;36.73;30.40;;;11.60;99.90;;;;;;2609226;54;20157;-76
2022/04/23 05:38:01;;;;;;;34.27;29.23;;;11.70;99.90;;;;;;2607659;54;20149;-75
2022/04/23 05:44:07;;;;;;;37.60;29.53;;;11.80;99.90;;;;;;2612469;54;20531;-80
2022/04/23 05:50:13;;;;;;;34.23;28.77;;;12.00;99.90;;;;;;2612295;54;20180;-79
2022/04/23 05:56:20;;;;;;;32.40;27.80;;;12.50;99.90;;;;;;2611908;54;20153;-78
2022/04/23 06:02:27;;;;;;;33.53;29.83;;;13.00;99.90;;;;;;2613876;54;20186;-78
2022/04/23 06:08:34;;;;;;;37.93;29.93;;;13.40;99.90;;;;;;2616856;54;20442;-78
2022/04/23 06:14:41;;;;;;;35.03;29.70;;;13.80;99.90;;;;;;2616905;54;20418;-77
2022/04/23 06:20:48;;;;;;;32.80;29.40;;;14.10;99.90;;;;;;2617330;54;20170;-78
2022/04/23 06:26:56;;;;;;;32.33;28.93;;;14.20;99.90;;;;;;2614580;54;20163;-78
2022/04/23 06:33:03;;;;;;;35.70;30.00;;;14.40;99.90;;;;;;2615219;54;20422;-79
2022/04/23 06:39:10;;;;;;;33.77;29.37;;;14.90;99.90;;;;;;2614965;54;20387;-78
2022/04/23 06:45:17;;;;;;;32.23;27.83;;;15.10;99.90;;;;;;2614860;54;20162;-78
2022/04/23 06:51:24;;;;;;;29.43;26.40;;;15.30;99.90;;;;;;2617161;39;20768;-76
2022/04/23 06:57:31;;;;;;;30.20;26.87;;;15.40;99.30;;;;;;2616311;54;20158;-79
2022/04/23 07:03:38;;;;;;;33.10;29.77;;;15.50;97.20;;;;;;2616551;54;20570;-79
2022/04/23 07:09:45;;;;;;;31.50;28.33;;;15.70;95.00;;;;;;2613496;46;20174;-78
2022/04/23 07:19:15;;;;;;;29.83;26.80;;;16.70;73.50;;;;;;2609635;47;20431;-78
2022/04/23 07:25:03;;;;;;;33.00;29.60;;;17.30;58.70;;;;;;2610115;39;20624;-77
2022/04/23 07:30:52;;;;;;;31.63;28.67;;;17.30;56.10;;;;;;2612868;54;20420;-79
2022/04/23 07:43:10;;;;;;;33.03;29.60;;;17.00;53.20;;;;;;2615119;54;20414;-77
2022/04/23 07:48:58;;;;;;;32.27;29.03;;;16.90;49.80;;;;;;2612618;39;20995;-77
2022/04/23 07:54:46;;;;;;;31.33;28.23;;;17.20;48.20;;;;;;2613707;54;20424;-80
2022/04/23 08:00:35;;;;;;;33.97;30.47;;;17.10;48.00;;;;;;2613020;54;20458;-79
2022/04/23 08:06:23;;;;;;;30.23;27.20;;;17.40;43.20;;;;;;2612169;54;20469;-81
2022/04/23 08:12:11;;;;;;;32.50;29.10;;;17.60;42.60;;;;;;2614807;54;20148;-76
2022/04/23 08:18:33;;;;;;;33.03;29.80;;;17.90;39.10;;;;;;2614385;54;20163;-78
2022/04/23 08:24:21;;;;;;;31.80;28.33;;;18.70;30.10;;;;;;2613931;54;20146;-80
2022/04/23 08:36:52;;;;;;;32.00;29.00;;;18.60;24.80;;;;;;2613760;54;20411;-80
2022/04/23 08:42:40;;;;;;;34.47;31.13;;;18.50;21.80;;;;;;2615226;39;20644;-79
2022/04/23 08:48:30;;;;;;;33.37;30.13;;;18.40;21.70;;;;;;2614746;47;20148;-78
2022/04/23 08:54:19;;;;;;;32.27;26.10;;;18.80;19.50;;;;;;2616936;51;20413;-78
2022/04/23 09:00:08;;;;;;;35.30;31.80;;;19.00;16.20;;;;;;2615907;54;20532;-75
2022/04/23 09:05:56;;;;;;;34.77;31.37;;;19.10;13.60;;;;;;2616966;54;20425;-80
2022/04/23 09:11:49;;;;;;;36.60;31.37;;;19.70;12.10;;;;;;2615740;54;20170;-80
2022/04/23 09:24:47;;;;;;;34.20;30.90;;;19.90;9.20;;;;;;2615408;47;20502;-78
2022/04/23 09:30:37;;;;;;;36.10;32.40;;;19.90;8.50;;;;;;2613671;54;20947;-79
2022/04/23 09:47:31;;;;;;;30.87;27.77;;;20.80;2.20;;;;;;2614576;54;20415;-78
2022/04/23 09:53:37;;;;;;;31.60;28.50;;;20.80;2.50;;;;;;2615071;54;20460;-77
2022/04/23 09:59:44;;;;;;;31.87;28.87;;;21.80;1.00;;;;;;2615608;39;20795;-79
2022/04/23 10:20:22;;;;;;;28.77;26.03;;;21.20;1.00;;;;;;2616930;54;20550;-76
2022/04/23 10:33:26;;;;;;;24.77;22.40;;;21.40;1.00;;;;;;2614299;54;20522;-79
2022/04/23 10:39:32;;;;;;;18.50;16.77;;;21.10;1.00;;;;;;2612308;46;20418;-78
2022/04/23 10:49:23;;;;;;;18.03;16.43;;;21.60;1.00;;;;;;2614423;39;20834;-78
2022/04/23 10:59:30;;;;;;;16.30;14.80;;;21.10;1.00;;;;;;2613704;54;20404;-78
2022/04/23 11:23:04;;;;;;;17.73;15.93;;;22.80;1.00;;;;;;2614291;46;20554;-79
2022/04/23 11:36:42;;;;;;;16.87;15.37;;;22.00;1.00;;;;;;2615655;39;20821;-78
2022/04/23 11:46:10;;;;;;;16.70;15.10;;;21.40;1.00;;;;;;2614039;54;20446;-79
2022/04/23 11:52:05;;;;;;;16.93;15.43;;;21.30;1.00;;;;;;2614790;54;20235;-77
2022/04/23 12:01:33;;;;;;;14.70;13.47;;;21.70;1.00;;;;;;2615378;46;20394;-79
2022/04/23 12:07:39;;;;;;;16.43;15.03;;;22.70;1.00;;;;;;2615136;54;20383;-79
2022/04/23 12:13:48;;;;;;;21.47;19.47;;;23.10;1.00;;;;;;2616769;54;20168;-80
2022/04/23 12:26:41;;;;;;;20.60;18.70;;;22.40;1.00;;;;;;2616330;46;20423;-79
2022/04/23 12:42:40;;;;;;;20.97;18.97;;;21.60;1.00;;;;;;2616797;54;20393;-79
2022/04/23 12:48:28;;;;;;;17.47;15.77;;;20.90;1.00;;;;;;2616700;54;20402;-78
2022/04/23 12:54:17;;;;;;;25.20;17.87;;;21.20;1.00;;;;;;2616671;54;20431;-80
2022/04/23 13:00:06;;;;;;;23.17;18.73;;;20.40;1.00;;;;;;2617083;54;20161;-79
2022/04/23 13:05:54;;;;;;;20.80;18.30;;;20.10;1.00;;;;;;2616005;46;20412;-80
2022/04/23 13:11:42;;;;;;;18.53;16.83;;;19.80;1.00;;;;;;2616499;54;20178;-81
2022/04/23 13:17:30;;;;;;;18.57;16.77;;;19.80;1.00;;;;;;2615720;47;20173;-78
2022/04/23 13:23:18;;;;;;;17.03;15.43;;;19.80;1.00;;;;;;2615936;54;20145;-79
2022/04/23 13:25:44;;;;;;;19.87;17.87;;;20.00;1.00;;;;;;2615176;47;20436;-80
2022/04/23 13:28:10;;;;;;;21.10;19.00;;;20.10;1.00;;;;;;2615268;39;20597;-78
2022/04/23 13:33:58;;;;;;;21.23;19.07;;;20.50;1.00;;;;;;2616106;47;20263;-79
2022/04/23 13:39:46;;;;;;;23.67;21.20;;;19.80;1.00;;;;;;2616825;54;20256;-80
2022/04/23 13:45:34;;;;;;;19.73;17.77;;;19.70;1.00;;;;;;2615799;54;20234;-81
2022/04/23 13:51:23;;;;;;;20.47;18.60;;;20.60;1.00;;;;;;2617542;54;20416;-80
2022/04/23 13:57:12;;;;;;;20.87;18.67;;;20.60;1.00;;;;;;2616615;54;20444;-80
2022/04/23 14:15:51;;;;;;;17.37;15.70;;;19.40;1.00;;;;;;2615816;47;20418;-81
2022/04/23 14:21:39;;;;;;;21.13;19.03;;;19.20;1.00;;;;;;2615905;39;20871;-81
2022/04/23 14:31:28;;;;;;;18.63;16.93;;;19.30;1.00;;;;;;2616049;54;20432;-78
2022/04/23 14:37:16;;;;;;;20.93;17.00;;;18.90;1.00;;;;;;2615417;54;20394;-79
2022/04/23 14:43:05;;;;;;;19.87;17.90;;;18.60;1.00;;;;;;2615040;54;20200;-80
2022/04/23 14:48:53;;;;;;;19.70;17.73;;;18.60;1.00;;;;;;2615891;54;20408;-82
2022/04/23 14:55:00;;;;;;;16.80;15.00;;;18.40;1.00;;;;;;2616224;54;20789;-78
2022/04/23 15:00:48;;;;;;;18.20;16.37;;;18.30;1.00;;;;;;2614526;54;20162;-79
2022/04/23 15:06:37;;;;;;;19.23;17.27;;;18.20;1.00;;;;;;2615288;54;20161;-77
2022/04/23 15:12:28;;;;;;;17.63;15.93;;;18.30;1.00;;;;;;2618766;54;20393;-80
2022/04/23 15:18:16;;;;;;;20.53;14.33;;;18.20;1.00;;;;;;2618247;54;20401;-77
2022/04/23 15:24:05;;;;;;;18.93;16.97;;;18.10;1.00;;;;;;2616996;54;20566;-79
2022/04/23 15:26:31;;;;;;;17.40;15.80;;;18.10;1.00;;;;;;2616260;54;21023;-79
2022/04/23 15:28:57;;;;;;;17.67;16.17;;;18.30;1.00;;;;;;2616992;54;20413;-78
2022/04/23 15:34:46;;;;;;;15.67;14.27;;;18.40;1.00;;;;;;2617742;54;20407;-78
2022/04/23 15:40:34;;;;;;;17.13;15.47;;;18.20;1.00;;;;;;2618106;39;20792;-79
2022/04/23 15:46:23;;;;;;;16.77;15.30;;;18.00;1.00;;;;;;2616787;54;20183;-79
2022/04/23 15:52:15;;;;;;;15.53;14.30;;;18.00;1.00;;;;;;2614393;54;20422;-77
2022/04/23 15:58:03;;;;;;;16.13;14.77;;;18.20;1.00;;;;;;2616381;54;20400;-79
2022/04/23 16:03:52;;;;;;;16.33;14.93;;;18.00;1.00;;;;;;2616531;54;20164;-78
2022/04/23 16:09:41;;;;;;;15.60;14.20;;;17.90;1.00;;;;;;2615383;47;20429;-79
2022/04/23 16:15:30;;;;;;;16.43;15.03;;;17.80;1.00;;;;;;2616596;39;20880;-76
2022/04/23 16:21:18;;;;;;;14.07;12.93;;;17.90;1.00;;;;;;2616151;47;20472;-78
2022/04/23 17:07:04;;;;;;;10.33;9.53;;;17.90;1.00;;;;;;2615738;39;20880;-80
2022/04/23 17:13:11;;;;;;;10.67;9.77;;;17.70;1.00;;;;;;2616876;54;20159;-79
2022/04/23 17:22:53;;;;;;;9.00;8.20;;;17.60;1.00;;;;;;2622860;54;20417;-77
2022/04/23 17:32:22;;;;;;;7.77;7.10;;;17.60;1.00;;;;;;2619465;54;20437;-77
2022/04/23 17:44:53;;;;;;;9.30;7.30;;;17.40;1.00;;;;;;2618296;54;20432;-78
2022/04/23 17:51:00;;;;;;;8.40;7.67;;;17.30;1.00;;;;;;2614334;54;20156;-79
2022/04/23 17:57:07;;;;;;;7.20;6.63;;;17.10;1.00;;;;;;2616300;54;20932;-81
2022/04/23 18:09:39;;;;;;;5.80;5.37;;;16.70;1.00;;;;;;2617607;54;20985;-81
2022/04/23 18:15:46;;;;;;;6.00;5.50;;;16.50;1.00;;;;;;2616380;54;20146;-80
2022/04/23 18:21:53;;;;;;;6.73;6.10;;;16.40;1.00;;;;;;2616473;54;20431;-78
2022/04/23 18:32:27;;;;;;;6.27;5.20;;;16.40;1.00;;;;;;2616420;54;20392;-80
2022/04/23 18:38:35;;;;;;;6.43;5.90;;;16.40;1.00;;;;;;2614422;54;20530;-78
2022/04/23 18:44:41;;;;;;;7.47;6.17;;;16.40;1.00;;;;;;2611952;54;20442;-79
2022/04/23 18:50:48;;;;;;;6.17;5.57;;;16.40;1.00;;;;;;2612279;54;20190;-81
2022/04/23 18:56:54;;;;;;;6.13;5.73;;;16.30;1.00;;;;;;2612666;54;21020;-81
2022/04/23 19:03:01;;;;;;;7.10;6.50;;;16.30;1.00;;;;;;2612965;54;20289;-79
2022/04/23 19:09:08;;;;;;;7.67;6.90;;;16.20;1.00;;;;;;2612340;54;20601;-80
2022/04/23 19:15:16;;;;;;;7.00;6.40;;;16.10;1.00;;;;;;2613644;54;20435;-79
2022/04/23 19:38:52;;;;;;;8.77;5.97;;;15.80;1.00;;;;;;2612274;54;20464;-78
2022/04/23 19:44:58;;;;;;;7.07;6.60;;;15.70;1.00;;;;;;2611490;54;20172;-78
2022/04/23 19:51:04;;;;;;;22.90;19.50;;;15.80;1.00;;;;;;2610530;54;20414;-80
2022/04/23 19:57:12;;;;;;;6.50;5.90;;;15.70;1.00;;;;;;2609989;54;20164;-80
2022/04/23 20:03:18;;;;;;;6.83;6.23;;;15.80;1.00;;;;;;2611257;54;20519;-79
2022/04/23 20:09:25;;;;;;;6.00;5.50;;;15.90;1.00;;;;;;2613217;54;20177;-78
2022/04/23 20:15:32;;;;;;;6.73;6.13;;;15.80;1.00;;;;;;2614765;54;20451;-81
2022/04/23 20:21:39;;;;;;;6.97;6.47;;;15.90;1.00;;;;;;2614144;54;20146;-82
2022/04/23 20:38:34;;;;;;;6.83;6.20;;;15.80;1.00;;;;;;2611892;47;21291;-79
2022/04/23 20:44:41;;;;;;;6.30;5.80;;;15.80;1.00;;;;;;2611212;54;20173;-76
2022/04/23 20:50:47;;;;;;;8.53;7.53;;;15.70;1.00;;;;;;2611790;54;20390;-79
2022/04/23 20:56:53;;;;;;;7.60;7.00;;;15.60;1.00;;;;;;2611109;54;20182;-78
2022/04/23 21:03:00;;;;;;;6.13;5.60;;;15.50;1.00;;;;;;2608865;54;20796;-76
2022/04/23 21:09:06;;;;;;;7.13;6.53;;;15.40;1.00;;;;;;2609202;54;20146;-81
2022/04/23 21:15:13;;;;;;;6.33;5.83;;;15.30;1.00;;;;;;2612444;39;20654;-79
2022/04/23 21:21:20;;;;;;;5.97;5.50;;;15.20;1.00;;;;;;2611023;54;20596;-79
2022/04/23 21:27:27;;;;;;;7.13;6.53;;;15.00;1.00;;;;;;2612469;54;20172;-81
2022/04/23 21:33:35;;;;;;;6.97;6.40;;;14.90;1.00;;;;;;2613317;54;20459;-79
2022/04/23 21:46:54;;;;;;;6.77;6.27;;;14.70;1.00;;;;;;2612220;54;20374;-80
2022/04/23 21:53:02;;;;;;;7.70;7.00;;;14.70;1.00;;;;;;2608907;39;20730;-78
2022/04/23 21:59:09;;;;;;;7.10;6.57;;;14.60;1.00;;;;;;2613237;54;20437;-79
2022/04/23 22:05:15;;;;;;;6.87;6.23;;;14.50;1.00;;;;;;2613670;54;20425;-80
2022/04/23 22:11:21;;;;;;;6.90;6.30;;;14.30;1.00;;;;;;2609956;54;20171;-82
2022/04/23 22:17:27;;;;;;;6.33;5.93;;;14.30;1.00;;;;;;2615225;39;20607;-82
2022/04/23 22:23:35;;;;;;;6.87;6.37;;;14.20;1.00;;;;;;2614433;54;20177;-81
2022/04/23 22:29:43;;;;;;;7.70;7.00;;;14.10;1.00;;;;;;2615447;54;21016;-78
2022/04/23 22:39:31;;;;;;;7.57;6.87;;;14.00;1.00;;;;;;2611449;39;21011;-81
2022/04/23 22:45:38;;;;;;;7.43;6.83;;;13.90;1.00;;;;;;2615164;54;20418;-81
2022/04/23 22:51:45;;;;;;;8.37;7.50;;;13.80;1.00;;;;;;2613682;54;20935;-77
2022/04/23 22:57:52;;;;;;;7.23;6.73;;;13.80;1.00;;;;;;2615643;54;20383;-80
2022/04/23 23:03:59;;;;;;;7.03;6.50;;;13.70;1.00;;;;;;2616278;54;20199;-80
2022/04/23 23:10:08;;;;;;;7.80;7.10;;;13.60;1.00;;;;;;2613666;54;20524;-82
2022/04/23 23:16:16;;;;;;;9.80;7.70;;;13.60;1.00;;;;;;2611055;54;21092;-79
2022/04/23 23:22:24;;;;;;;7.00;6.40;;;13.50;1.00;;;;;;2615688;54;20471;-81
2022/04/23 23:28:33;;;;;;;7.00;6.30;;;13.40;1.00;;;;;;2610629;54;20418;-80
2022/04/23 23:45:44;;;;;;;6.97;6.47;;;13.10;1.00;;;;;;2611424;54;20438;-81
2022/04/23 23:51:51;;;;;;;8.13;7.53;;;13.00;1.00;;;;;;2610808;39;20757;-81
2022/04/23 23:57:57;;;;;;;7.70;7.00;;;12.80;1.40;;;;;;2613370;54;20253;-79
